WHSE22 YSHW-YSHW
Flight info
| Callsign | WHSE22 |
|---|---|
| Flight time | 2h 3m |
| Altitude | 4500 |
| Route | YSHW DCT 335248S1501059E DCT 323703S1511048E DCT YSHW |
| Aircraft | H60/M-SGRWY/LB1 |
Departure
| Time | 2026-04-29 02:25 |
|---|---|
| Airport | Holsworthy (Military) Airport (YSHW) |
Arrival
| Time | 2026-04-29 04:29 |
|---|---|
| Airport | Holsworthy (Military) Airport (YSHW) |
| Time | Latitude | Longitude | Altitude | Speed | Heading |
|---|---|---|---|---|---|
| 2026-04-29 02:09 | -33.99482 | 150.95267 | 255 ft | 0 kts | 124° |
| 2026-04-29 02:20 | -33.99484 | 150.95272 | 266 ft | 1 kts | 122° |
| 2026-04-29 02:20 | -33.99491 | 150.95284 | 266 ft | 4 kts | 143° |
| 2026-04-29 02:21 | -33.99517 | 150.95279 | 251 ft | 4 kts | 214° |
| 2026-04-29 02:21 | -33.99532 | 150.95266 | 252 ft | 2 kts | 217° |
| 2026-04-29 02:21 | -33.99535 | 150.95263 | 252 ft | 0 kts | 219° |
| 2026-04-29 02:22 | -33.99539 | 150.95259 | 253 ft | 0 kts | 220° |
| 2026-04-29 02:23 | -33.99554 | 150.95243 | 254 ft | 5 kts | 221° |
| 2026-04-29 02:23 | -33.99562 | 150.95204 | 255 ft | 0 kts | 303° |
| 2026-04-29 02:23 | -33.99560 | 150.95200 | 255 ft | 3 kts | 301° |
| 2026-04-29 02:24 | -33.99502 | 150.95101 | 272 ft | 27 kts | 298° |
| 2026-04-29 02:24 | -33.99358 | 150.94878 | 361 ft | 36 kts | 300° |
| 2026-04-29 02:24 | -33.99180 | 150.94541 | 520 ft | 66 kts | 301° |
| 2026-04-29 02:25 | -33.98636 | 150.93050 | 508 ft | 115 kts | 283° |
| 2026-04-29 02:25 | -33.98508 | 150.92147 | 651 ft | 104 kts | 281° |
| 2026-04-29 02:25 | -33.98375 | 150.91273 | 832 ft | 113 kts | 281° |
| 2026-04-29 02:25 | -33.98218 | 150.90295 | 788 ft | 123 kts | 281° |
| 2026-04-29 02:26 | -33.98052 | 150.89289 | 786 ft | 122 kts | 282° |
| 2026-04-29 02:26 | -33.97881 | 150.88291 | 832 ft | 121 kts | 282° |
| 2026-04-29 02:26 | -33.97707 | 150.87308 | 859 ft | 119 kts | 283° |
| 2026-04-29 02:26 | -33.97529 | 150.86329 | 910 ft | 119 kts | 283° |
| 2026-04-29 02:27 | -33.97346 | 150.85357 | 973 ft | 118 kts | 283° |
| 2026-04-29 02:27 | -33.97159 | 150.84395 | 1039 ft | 118 kts | 283° |
| 2026-04-29 02:27 | -33.96966 | 150.83431 | 1083 ft | 119 kts | 283° |
| 2026-04-29 02:27 | -33.96812 | 150.82451 | 1132 ft | 120 kts | 279° |
| 2026-04-29 02:28 | -33.96648 | 150.81455 | 1154 ft | 123 kts | 282° |
| 2026-04-29 02:28 | -33.96449 | 150.80444 | 1122 ft | 126 kts | 283° |
| 2026-04-29 02:28 | -33.96236 | 150.79402 | 1030 ft | 130 kts | 284° |
| 2026-04-29 02:28 | -33.96013 | 150.78346 | 891 ft | 128 kts | 285° |
| 2026-04-29 02:29 | -33.95799 | 150.77369 | 943 ft | 116 kts | 285° |
| 2026-04-29 02:29 | -33.95587 | 150.76436 | 1056 ft | 115 kts | 285° |
| 2026-04-29 02:29 | -33.95371 | 150.75514 | 1136 ft | 114 kts | 285° |
| 2026-04-29 02:29 | -33.95151 | 150.74588 | 1184 ft | 116 kts | 285° |
| 2026-04-29 02:30 | -33.94926 | 150.73647 | 1209 ft | 118 kts | 285° |
| 2026-04-29 02:30 | -33.94695 | 150.72692 | 1217 ft | 119 kts | 286° |
| 2026-04-29 02:30 | -33.94460 | 150.71727 | 1220 ft | 121 kts | 286° |
| 2026-04-29 02:30 | -33.94222 | 150.70756 | 1211 ft | 122 kts | 285° |
| 2026-04-29 02:31 | -33.93979 | 150.69772 | 1223 ft | 123 kts | 286° |
| 2026-04-29 02:31 | -33.93735 | 150.68788 | 1201 ft | 123 kts | 286° |
| 2026-04-29 02:31 | -33.93491 | 150.67795 | 1116 ft | 124 kts | 285° |
| 2026-04-29 02:31 | -33.93332 | 150.66772 | 1020 ft | 123 kts | 277° |
| 2026-04-29 02:32 | -33.93238 | 150.65776 | 1030 ft | 117 kts | 276° |
| 2026-04-29 02:32 | -33.93151 | 150.64829 | 1127 ft | 111 kts | 276° |
| 2026-04-29 02:32 | -33.93071 | 150.63924 | 1259 ft | 108 kts | 275° |
| 2026-04-29 02:32 | -33.92990 | 150.63002 | 1294 ft | 113 kts | 275° |
| 2026-04-29 02:33 | -33.92909 | 150.62040 | 1302 ft | 117 kts | 275° |
| 2026-04-29 02:33 | -33.92828 | 150.61048 | 1312 ft | 120 kts | 275° |
| 2026-04-29 02:33 | -33.92751 | 150.60042 | 1299 ft | 122 kts | 275° |
| 2026-04-29 02:33 | -33.92677 | 150.59037 | 1253 ft | 123 kts | 274° |
| 2026-04-29 02:34 | -33.92606 | 150.58009 | 1198 ft | 124 kts | 274° |
| 2026-04-29 02:34 | -33.92388 | 150.57016 | 1022 ft | 129 kts | 292° |
| 2026-04-29 02:34 | -33.92540 | 150.55964 | 590 ft | 132 kts | 243° |
| 2026-04-29 02:34 | -33.92861 | 150.55026 | 666 ft | 110 kts | 251° |
| 2026-04-29 02:35 | -33.93066 | 150.54217 | 995 ft | 99 kts | 253° |
| 2026-04-29 02:35 | -33.93277 | 150.53362 | 1095 ft | 115 kts | 253° |
| 2026-04-29 02:35 | -33.93524 | 150.52466 | 1265 ft | 103 kts | 249° |
| 2026-04-29 02:35 | -33.93472 | 150.51515 | 1297 ft | 144 kts | 294° |
| 2026-04-29 02:36 | -33.92905 | 150.50663 | 2106 ft | 110 kts | 315° |
| 2026-04-29 02:36 | -33.92562 | 150.49736 | 2187 ft | 145 kts | 273° |
| 2026-04-29 02:36 | -33.92470 | 150.48517 | 2148 ft | 149 kts | 277° |
| 2026-04-29 02:36 | -33.92274 | 150.47273 | 2223 ft | 151 kts | 282° |
| 2026-04-29 02:37 | -33.92026 | 150.46045 | 2353 ft | 153 kts | 283° |
| 2026-04-29 02:37 | -33.91767 | 150.44757 | 2359 ft | 163 kts | 283° |
| 2026-04-29 02:37 | -33.91474 | 150.43418 | 2254 ft | 165 kts | 284° |
| 2026-04-29 02:37 | -33.91163 | 150.42109 | 2291 ft | 160 kts | 285° |
| 2026-04-29 02:38 | -33.90856 | 150.40798 | 2212 ft | 172 kts | 285° |
| 2026-04-29 02:38 | -33.90542 | 150.39328 | 1557 ft | 184 kts | 282° |
| 2026-04-29 02:38 | -33.90256 | 150.37898 | 1402 ft | 166 kts | 284° |
| 2026-04-29 02:38 | -33.89974 | 150.36611 | 1584 ft | 154 kts | 284° |
| 2026-04-29 02:39 | -33.89769 | 150.35330 | 1660 ft | 158 kts | 276° |
| 2026-04-29 02:39 | -33.89705 | 150.34000 | 1699 ft | 159 kts | 270° |
| 2026-04-29 02:39 | -33.89699 | 150.32669 | 1810 ft | 159 kts | 270° |
| 2026-04-29 02:39 | -33.89678 | 150.31349 | 1963 ft | 154 kts | 271° |
| 2026-04-29 02:40 | -33.89653 | 150.30090 | 2171 ft | 150 kts | 271° |
| 2026-04-29 02:40 | -33.89599 | 150.28843 | 2316 ft | 152 kts | 273° |
| 2026-04-29 02:40 | -33.89513 | 150.27559 | 2531 ft | 148 kts | 275° |
| 2026-04-29 02:40 | -33.89416 | 150.26322 | 2778 ft | 148 kts | 274° |
| 2026-04-29 02:41 | -33.89316 | 150.25090 | 2946 ft | 151 kts | 277° |
| 2026-04-29 02:41 | -33.89083 | 150.23819 | 2953 ft | 161 kts | 283° |
| 2026-04-29 02:41 | -33.88813 | 150.22478 | 3000 ft | 166 kts | 284° |
| 2026-04-29 02:41 | -33.88526 | 150.21123 | 2947 ft | 168 kts | 283° |
| 2026-04-29 02:42 | -33.88308 | 150.19784 | 3172 ft | 156 kts | 281° |
| 2026-04-29 02:42 | -33.88044 | 150.18571 | 3503 ft | 146 kts | 286° |
| 2026-04-29 02:42 | -33.87708 | 150.17414 | 3432 ft | 142 kts | 300° |
| 2026-04-29 02:42 | -33.86957 | 150.17078 | 3365 ft | 116 kts | 25° |
| 2026-04-29 02:43 | -33.86706 | 150.17965 | 2846 ft | 122 kts | 88° |
| 2026-04-29 02:43 | -33.86775 | 150.18982 | 2405 ft | 118 kts | 103° |
| 2026-04-29 02:43 | -33.87273 | 150.19578 | 1927 ft | 100 kts | 163° |
| 2026-04-29 02:43 | -33.87914 | 150.19479 | 1512 ft | 85 kts | 188° |
| 2026-04-29 02:44 | -33.88390 | 150.19151 | 1151 ft | 79 kts | 229° |
| 2026-04-29 02:44 | -33.88255 | 150.18670 | 896 ft | 69 kts | 309° |
| 2026-04-29 02:44 | -33.87960 | 150.18477 | 681 ft | 17 kts | 322° |
| 2026-04-29 02:44 | -33.87941 | 150.18381 | 604 ft | 7 kts | 302° |
| 2026-04-29 02:45 | -33.87923 | 150.18365 | 579 ft | 1 kts | 280° |
| 2026-04-29 02:45 | -33.87921 | 150.18352 | 573 ft | 0 kts | 270° |
| 2026-04-29 02:51 | -33.87987 | 150.18189 | 572 ft | 50 kts | 217° |
| 2026-04-29 02:51 | -33.88216 | 150.17852 | 736 ft | 38 kts | 189° |
| 2026-04-29 02:52 | -33.88314 | 150.17681 | 783 ft | 26 kts | 170° |
| 2026-04-29 02:52 | -33.88609 | 150.17593 | 668 ft | 36 kts | 101° |
| 2026-04-29 02:52 | -33.88585 | 150.17262 | 619 ft | 25 kts | 217° |
| 2026-04-29 02:52 | -33.88705 | 150.17246 | 626 ft | 3 kts | 177° |
| 2026-04-29 02:53 | -33.88614 | 150.17191 | 871 ft | 3 kts | 152° |
| 2026-04-29 02:53 | -33.88646 | 150.17379 | 1483 ft | 55 kts | 85° |
| 2026-04-29 02:53 | -33.88300 | 150.18077 | 2222 ft | 132 kts | 51° |
| 2026-04-29 02:53 | -33.87706 | 150.18868 | 2948 ft | 121 kts | 45° |
| 2026-04-29 02:54 | -33.87200 | 150.19684 | 3604 ft | 124 kts | 53° |
| 2026-04-29 02:54 | -33.86967 | 150.20676 | 4028 ft | 124 kts | 76° |
| 2026-04-29 02:54 | -33.86611 | 150.21557 | 3817 ft | 114 kts | 46° |
| 2026-04-29 02:54 | -33.86125 | 150.22270 | 3821 ft | 107 kts | 49° |
| 2026-04-29 02:55 | -33.85670 | 150.23043 | 3736 ft | 122 kts | 51° |
| 2026-04-29 02:55 | -33.85057 | 150.23884 | 3366 ft | 149 kts | 44° |
| 2026-04-29 02:55 | -33.84238 | 150.24821 | 3260 ft | 171 kts | 43° |
| 2026-04-29 02:55 | -33.83347 | 150.25807 | 3260 ft | 176 kts | 41° |
| 2026-04-29 02:56 | -33.82344 | 150.26684 | 3229 ft | 181 kts | 32° |
| 2026-04-29 02:56 | -33.81253 | 150.27420 | 3332 ft | 175 kts | 28° |
| 2026-04-29 02:56 | -33.80188 | 150.28100 | 3478 ft | 175 kts | 28° |
| 2026-04-29 02:56 | -33.79066 | 150.28771 | 3364 ft | 186 kts | 26° |
| 2026-04-29 02:57 | -33.77943 | 150.29570 | 3112 ft | 188 kts | 37° |
| 2026-04-29 02:57 | -33.76983 | 150.30623 | 2901 ft | 184 kts | 44° |
| 2026-04-29 02:57 | -33.76145 | 150.31698 | 2118 ft | 175 kts | 48° |
| 2026-04-29 02:57 | -33.75464 | 150.32696 | 2731 ft | 143 kts | 51° |
| 2026-04-29 02:58 | -33.74834 | 150.33647 | 3114 ft | 150 kts | 49° |
| 2026-04-29 02:58 | -33.74117 | 150.34567 | 3336 ft | 147 kts | 44° |
| 2026-04-29 02:58 | -33.73397 | 150.35352 | 3848 ft | 133 kts | 38° |
| 2026-04-29 02:58 | -33.72641 | 150.36000 | 4316 ft | 140 kts | 32° |
| 2026-04-29 02:59 | -33.71766 | 150.36650 | 4092 ft | 157 kts | 31° |
| 2026-04-29 02:59 | -33.70797 | 150.37334 | 3846 ft | 163 kts | 29° |
| 2026-04-29 02:59 | -33.69805 | 150.37989 | 3694 ft | 163 kts | 27° |
| 2026-04-29 02:59 | -33.68785 | 150.38577 | 3568 ft | 162 kts | 23° |
| 2026-04-29 03:00 | -33.67760 | 150.39112 | 3434 ft | 160 kts | 25° |
| 2026-04-29 03:00 | -33.66787 | 150.39738 | 3316 ft | 158 kts | 29° |
| 2026-04-29 03:00 | -33.65874 | 150.40453 | 3216 ft | 157 kts | 34° |
| 2026-04-29 03:00 | -33.64998 | 150.41229 | 3166 ft | 155 kts | 35° |
| 2026-04-29 03:01 | -33.64067 | 150.41885 | 3137 ft | 156 kts | 24° |
| 2026-04-29 03:01 | -33.63078 | 150.42404 | 3094 ft | 155 kts | 22° |
| 2026-04-29 03:01 | -33.62106 | 150.42922 | 3086 ft | 155 kts | 23° |
| 2026-04-29 03:01 | -33.61131 | 150.43456 | 3102 ft | 153 kts | 24° |
| 2026-04-29 03:02 | -33.60171 | 150.43995 | 3109 ft | 152 kts | 25° |
| 2026-04-29 03:02 | -33.59208 | 150.44552 | 3161 ft | 153 kts | 25° |
| 2026-04-29 03:02 | -33.58253 | 150.45128 | 3124 ft | 155 kts | 24° |
| 2026-04-29 03:02 | -33.57279 | 150.45751 | 2891 ft | 161 kts | 25° |
| 2026-04-29 03:03 | -33.56330 | 150.46378 | 2825 ft | 151 kts | 25° |
| 2026-04-29 03:03 | -33.55447 | 150.47013 | 2837 ft | 147 kts | 27° |
| 2026-04-29 03:03 | -33.54597 | 150.47681 | 2846 ft | 145 kts | 30° |
| 2026-04-29 03:03 | -33.53777 | 150.48387 | 2858 ft | 145 kts | 32° |
| 2026-04-29 03:04 | -33.52988 | 150.49131 | 2887 ft | 144 kts | 35° |
| 2026-04-29 03:04 | -33.52232 | 150.49917 | 2933 ft | 144 kts | 38° |
| 2026-04-29 03:04 | -33.51508 | 150.50741 | 2991 ft | 143 kts | 40° |
| 2026-04-29 03:04 | -33.50804 | 150.51585 | 3041 ft | 143 kts | 39° |
| 2026-04-29 03:05 | -33.50068 | 150.52383 | 3088 ft | 143 kts | 38° |
| 2026-04-29 03:05 | -33.49337 | 150.53198 | 3111 ft | 144 kts | 39° |
| 2026-04-29 03:05 | -33.48606 | 150.54022 | 3116 ft | 145 kts | 36° |
| 2026-04-29 03:05 | -33.47787 | 150.54736 | 3042 ft | 151 kts | 31° |
| 2026-04-29 03:06 | -33.46897 | 150.55431 | 2930 ft | 153 kts | 28° |
| 2026-04-29 03:06 | -33.45973 | 150.56071 | 2840 ft | 154 kts | 25° |
| 2026-04-29 03:06 | -33.45019 | 150.56653 | 2760 ft | 154 kts | 21° |
| 2026-04-29 03:06 | -33.44043 | 150.57171 | 2693 ft | 152 kts | 18° |
| 2026-04-29 03:07 | -33.43054 | 150.57623 | 2629 ft | 152 kts | 15° |
| 2026-04-29 03:07 | -33.42049 | 150.58014 | 2578 ft | 152 kts | 12° |
| 2026-04-29 03:07 | -33.41033 | 150.58343 | 2529 ft | 151 kts | 9° |
| 2026-04-29 03:07 | -33.40014 | 150.58627 | 2492 ft | 151 kts | 10° |
| 2026-04-29 03:08 | -33.39019 | 150.59036 | 2424 ft | 152 kts | 18° |
| 2026-04-29 03:08 | -33.38067 | 150.59598 | 2383 ft | 153 kts | 24° |
| 2026-04-29 03:08 | -33.37142 | 150.60176 | 2350 ft | 152 kts | 22° |
| 2026-04-29 03:08 | -33.36217 | 150.60802 | 2303 ft | 154 kts | 29° |
| 2026-04-29 03:09 | -33.35319 | 150.61506 | 2232 ft | 154 kts | 29° |
| 2026-04-29 03:09 | -33.34416 | 150.62196 | 2184 ft | 153 kts | 28° |
| 2026-04-29 03:09 | -33.33513 | 150.62869 | 2129 ft | 153 kts | 28° |
| 2026-04-29 03:09 | -33.32604 | 150.63531 | 2092 ft | 153 kts | 27° |
| 2026-04-29 03:10 | -33.31694 | 150.64180 | 2069 ft | 152 kts | 26° |
| 2026-04-29 03:10 | -33.30784 | 150.64818 | 2059 ft | 151 kts | 26° |
| 2026-04-29 03:10 | -33.29871 | 150.65446 | 2049 ft | 151 kts | 26° |
| 2026-04-29 03:10 | -33.28960 | 150.66066 | 2049 ft | 150 kts | 25° |
| 2026-04-29 03:11 | -33.28051 | 150.66678 | 2044 ft | 150 kts | 25° |
| 2026-04-29 03:11 | -33.27139 | 150.67286 | 2026 ft | 150 kts | 25° |
| 2026-04-29 03:11 | -33.26226 | 150.67890 | 2013 ft | 150 kts | 25° |
| 2026-04-29 03:11 | -33.25309 | 150.68490 | 2011 ft | 150 kts | 24° |
| 2026-04-29 03:12 | -33.24407 | 150.69076 | 2002 ft | 150 kts | 24° |
| 2026-04-29 03:12 | -33.23487 | 150.69668 | 1999 ft | 150 kts | 24° |
| 2026-04-29 03:12 | -33.22567 | 150.70255 | 1999 ft | 150 kts | 24° |
| 2026-04-29 03:12 | -33.21642 | 150.70839 | 2005 ft | 150 kts | 24° |
| 2026-04-29 03:13 | -33.20717 | 150.71417 | 2013 ft | 150 kts | 23° |
| 2026-04-29 03:13 | -33.19791 | 150.71991 | 2014 ft | 150 kts | 23° |
| 2026-04-29 03:13 | -33.18866 | 150.72561 | 2011 ft | 150 kts | 23° |
| 2026-04-29 03:13 | -33.17937 | 150.73127 | 2017 ft | 150 kts | 23° |
| 2026-04-29 03:14 | -33.17004 | 150.73690 | 2024 ft | 150 kts | 22° |
| 2026-04-29 03:14 | -33.16071 | 150.74248 | 2019 ft | 150 kts | 22° |
| 2026-04-29 03:14 | -33.15132 | 150.74803 | 2040 ft | 151 kts | 22° |
| 2026-04-29 03:14 | -33.14193 | 150.75351 | 2052 ft | 150 kts | 22° |
| 2026-04-29 03:15 | -33.13266 | 150.75928 | 2039 ft | 152 kts | 28° |
| 2026-04-29 03:15 | -33.12429 | 150.76728 | 1942 ft | 155 kts | 36° |
| 2026-04-29 03:15 | -33.11587 | 150.77521 | 1884 ft | 154 kts | 34° |
| 2026-04-29 03:15 | -33.10734 | 150.78284 | 1861 ft | 153 kts | 32° |
| 2026-04-29 03:16 | -33.09866 | 150.79020 | 1856 ft | 152 kts | 31° |
| 2026-04-29 03:16 | -33.08992 | 150.79726 | 1840 ft | 151 kts | 30° |
| 2026-04-29 03:16 | -33.08117 | 150.80400 | 1826 ft | 152 kts | 28° |
| 2026-04-29 03:16 | -33.07219 | 150.81060 | 1811 ft | 152 kts | 27° |
| 2026-04-29 03:17 | -33.06311 | 150.81695 | 1790 ft | 152 kts | 26° |
| 2026-04-29 03:17 | -33.05390 | 150.82306 | 1784 ft | 152 kts | 25° |
| 2026-04-29 03:17 | -33.04458 | 150.82894 | 1777 ft | 151 kts | 23° |
| 2026-04-29 03:17 | -33.03516 | 150.83457 | 1776 ft | 151 kts | 22° |
| 2026-04-29 03:18 | -33.02609 | 150.84140 | 1670 ft | 159 kts | 35° |
| 2026-04-29 03:18 | -33.01749 | 150.84969 | 1563 ft | 155 kts | 36° |
| 2026-04-29 03:18 | -33.00927 | 150.85756 | 1638 ft | 148 kts | 34° |
| 2026-04-29 03:18 | -33.00112 | 150.86490 | 1732 ft | 146 kts | 32° |
| 2026-04-29 03:19 | -32.99271 | 150.87151 | 1825 ft | 145 kts | 27° |
| 2026-04-29 03:19 | -32.98394 | 150.87746 | 1930 ft | 145 kts | 24° |
| 2026-04-29 03:19 | -32.97524 | 150.88352 | 2019 ft | 145 kts | 26° |
| 2026-04-29 03:19 | -32.96655 | 150.88972 | 2088 ft | 146 kts | 26° |
| 2026-04-29 03:20 | -32.95778 | 150.89593 | 2133 ft | 147 kts | 26° |
| 2026-04-29 03:20 | -32.94906 | 150.90204 | 2161 ft | 147 kts | 26° |
| 2026-04-29 03:20 | -32.94019 | 150.90816 | 2172 ft | 148 kts | 26° |
| 2026-04-29 03:20 | -32.93119 | 150.91425 | 2208 ft | 149 kts | 25° |
| 2026-04-29 03:21 | -32.92214 | 150.92025 | 2242 ft | 149 kts | 25° |
| 2026-04-29 03:21 | -32.91302 | 150.92615 | 2284 ft | 149 kts | 24° |
| 2026-04-29 03:21 | -32.90388 | 150.93194 | 2320 ft | 148 kts | 24° |
| 2026-04-29 03:21 | -32.89474 | 150.93761 | 2318 ft | 148 kts | 23° |
| 2026-04-29 03:22 | -32.88550 | 150.94322 | 2333 ft | 149 kts | 22° |
| 2026-04-29 03:22 | -32.87651 | 150.94903 | 2336 ft | 151 kts | 31° |
| 2026-04-29 03:22 | -32.86980 | 150.95892 | 2134 ft | 158 kts | 59° |
| 2026-04-29 03:22 | -32.86470 | 150.97042 | 2044 ft | 155 kts | 57° |
| 2026-04-29 03:23 | -32.85936 | 150.98121 | 2089 ft | 149 kts | 55° |
| 2026-04-29 03:23 | -32.85383 | 150.99158 | 2169 ft | 146 kts | 53° |
| 2026-04-29 03:23 | -32.84816 | 151.00154 | 2251 ft | 145 kts | 51° |
| 2026-04-29 03:23 | -32.84165 | 151.01067 | 2325 ft | 145 kts | 43° |
| 2026-04-29 03:24 | -32.83445 | 151.01940 | 2323 ft | 150 kts | 40° |
| 2026-04-29 03:24 | -32.82667 | 151.02786 | 2259 ft | 153 kts | 37° |
| 2026-04-29 03:24 | -32.81858 | 151.03634 | 2173 ft | 156 kts | 38° |
| 2026-04-29 03:24 | -32.81050 | 151.04494 | 2106 ft | 156 kts | 38° |
| 2026-04-29 03:25 | -32.80247 | 151.05359 | 2038 ft | 156 kts | 39° |
| 2026-04-29 03:25 | -32.79451 | 151.06228 | 1986 ft | 155 kts | 39° |
| 2026-04-29 03:25 | -32.78664 | 151.07099 | 1944 ft | 155 kts | 39° |
| 2026-04-29 03:25 | -32.77884 | 151.07978 | 1917 ft | 154 kts | 40° |
| 2026-04-29 03:26 | -32.77115 | 151.08862 | 1894 ft | 154 kts | 40° |
| 2026-04-29 03:26 | -32.76354 | 151.09755 | 1880 ft | 153 kts | 41° |
| 2026-04-29 03:26 | -32.75604 | 151.10656 | 1867 ft | 153 kts | 42° |
| 2026-04-29 03:26 | -32.74864 | 151.11566 | 1851 ft | 153 kts | 43° |
| 2026-04-29 03:27 | -32.74134 | 151.12486 | 1835 ft | 153 kts | 43° |
| 2026-04-29 03:27 | -32.73413 | 151.13417 | 1821 ft | 153 kts | 44° |
| 2026-04-29 03:27 | -32.72702 | 151.14358 | 1806 ft | 153 kts | 45° |
| 2026-04-29 03:27 | -32.72003 | 151.15308 | 1787 ft | 153 kts | 45° |
| 2026-04-29 03:28 | -32.71232 | 151.16162 | 1760 ft | 153 kts | 32° |
| 2026-04-29 03:28 | -32.70330 | 151.16809 | 1715 ft | 153 kts | 27° |
| 2026-04-29 03:28 | -32.69459 | 151.17546 | 1667 ft | 156 kts | 38° |
| 2026-04-29 03:28 | -32.68675 | 151.18435 | 1611 ft | 155 kts | 40° |
| 2026-04-29 03:29 | -32.67897 | 151.19312 | 1599 ft | 153 kts | 40° |
| 2026-04-29 03:29 | -32.67121 | 151.20173 | 1614 ft | 152 kts | 39° |
| 2026-04-29 03:29 | -32.66307 | 151.20964 | 1617 ft | 151 kts | 27° |
| 2026-04-29 03:29 | -32.65312 | 151.21265 | 1482 ft | 148 kts | 356° |
| 2026-04-29 03:30 | -32.64333 | 151.21025 | 1322 ft | 141 kts | 334° |
| 2026-04-29 03:30 | -32.63504 | 151.20412 | 1166 ft | 141 kts | 315° |
| 2026-04-29 03:30 | -32.62820 | 151.19671 | 1047 ft | 124 kts | 309° |
| 2026-04-29 03:30 | -32.62257 | 151.18958 | 942 ft | 106 kts | 303° |
| 2026-04-29 03:31 | -32.61699 | 151.18149 | 666 ft | 29 kts | 230° |
| 2026-04-29 03:31 | -32.61660 | 151.18027 | 465 ft | 15 kts | 279° |
| 2026-04-29 03:31 | -32.61728 | 151.17957 | 296 ft | 10 kts | 278° |
| 2026-04-29 03:32 | -32.61728 | 151.17925 | 261 ft | 2 kts | 269° |
| 2026-04-29 03:32 | -32.61729 | 151.17916 | 253 ft | 1 kts | 268° |
| 2026-04-29 03:32 | -32.61729 | 151.17899 | 246 ft | 3 kts | 270° |
| 2026-04-29 03:32 | -32.61729 | 151.17897 | 247 ft | 1 kts | 271° |
| 2026-04-29 03:33 | -32.61728 | 151.17895 | 246 ft | 0 kts | 270° |
| 2026-04-29 03:38 | -32.61728 | 151.17891 | 256 ft | 1 kts | 271° |
| 2026-04-29 03:38 | -32.61730 | 151.17891 | 308 ft | 6 kts | 279° |
| 2026-04-29 03:38 | -32.61741 | 151.17878 | 425 ft | 4 kts | 289° |
| 2026-04-29 03:39 | -32.61726 | 151.17718 | 523 ft | 58 kts | 277° |
| 2026-04-29 03:39 | -32.62243 | 151.17440 | 849 ft | 104 kts | 182° |
| 2026-04-29 03:39 | -32.62900 | 151.17946 | 1245 ft | 129 kts | 136° |
| 2026-04-29 03:39 | -32.63540 | 151.18774 | 1435 ft | 140 kts | 131° |
| 2026-04-29 03:40 | -32.64156 | 151.19700 | 1575 ft | 145 kts | 127° |
| 2026-04-29 03:40 | -32.64719 | 151.20714 | 1641 ft | 149 kts | 122° |
| 2026-04-29 03:40 | -32.65213 | 151.21810 | 1681 ft | 151 kts | 116° |
| 2026-04-29 03:40 | -32.65843 | 151.22847 | 1518 ft | 162 kts | 136° |
| 2026-04-29 03:41 | -32.66830 | 151.23528 | 1195 ft | 167 kts | 158° |
| 2026-04-29 03:41 | -32.67928 | 151.23916 | 1023 ft | 163 kts | 168° |
| 2026-04-29 03:41 | -32.69029 | 151.24110 | 972 ft | 158 kts | 172° |
| 2026-04-29 03:41 | -32.70099 | 151.24356 | 967 ft | 156 kts | 168° |
| 2026-04-29 03:42 | -32.71147 | 151.24702 | 943 ft | 157 kts | 164° |
| 2026-04-29 03:42 | -32.72201 | 151.25017 | 930 ft | 157 kts | 167° |
| 2026-04-29 03:42 | -32.73279 | 151.25276 | 846 ft | 159 kts | 170° |
| 2026-04-29 03:42 | -32.74473 | 151.25491 | 916 ft | 185 kts | 172° |
| 2026-04-29 03:43 | -32.75771 | 151.25807 | 1061 ft | 196 kts | 168° |
| 2026-04-29 03:43 | -32.77104 | 151.26142 | 1092 ft | 189 kts | 167° |
| 2026-04-29 03:43 | -32.78370 | 151.26323 | 1441 ft | 189 kts | 180° |
| 2026-04-29 03:43 | -32.79710 | 151.26031 | 1340 ft | 199 kts | 193° |
| 2026-04-29 03:44 | -32.81047 | 151.25719 | 1333 ft | 190 kts | 192° |
| 2026-04-29 03:44 | -32.82301 | 151.25428 | 1745 ft | 180 kts | 188° |
| 2026-04-29 03:44 | -32.83564 | 151.25429 | 2153 ft | 187 kts | 179° |
| 2026-04-29 03:44 | -32.84924 | 151.25537 | 2077 ft | 201 kts | 175° |
| 2026-04-29 03:45 | -32.86324 | 151.25872 | 1605 ft | 207 kts | 168° |
| 2026-04-29 03:45 | -32.87683 | 151.26248 | 1506 ft | 191 kts | 168° |
| 2026-04-29 03:45 | -32.88966 | 151.26562 | 1865 ft | 189 kts | 169° |
| 2026-04-29 03:45 | -32.90316 | 151.26914 | 1690 ft | 210 kts | 168° |
| 2026-04-29 03:46 | -32.91747 | 151.27305 | 1024 ft | 203 kts | 167° |
| 2026-04-29 03:46 | -32.93025 | 151.27655 | 1466 ft | 184 kts | 168° |
| 2026-04-29 03:46 | -32.94315 | 151.27980 | 1712 ft | 196 kts | 168° |
| 2026-04-29 03:46 | -32.95672 | 151.28339 | 1544 ft | 201 kts | 170° |
| 2026-04-29 03:47 | -32.97047 | 151.28264 | 1347 ft | 197 kts | 188° |
| 2026-04-29 03:47 | -32.98325 | 151.28578 | 1212 ft | 197 kts | 148° |
| 2026-04-29 03:47 | -32.99343 | 151.29707 | 965 ft | 199 kts | 134° |
| 2026-04-29 03:47 | -33.00356 | 151.30767 | 1137 ft | 190 kts | 145° |
| 2026-04-29 03:48 | -33.01458 | 151.31653 | 1369 ft | 197 kts | 145° |
| 2026-04-29 03:48 | -33.02197 | 151.33044 | 944 ft | 202 kts | 109° |
| 2026-04-29 03:48 | -33.03061 | 151.34029 | 1376 ft | 167 kts | 165° |
| 2026-04-29 03:48 | -33.04242 | 151.34023 | 1915 ft | 181 kts | 179° |
| 2026-04-29 03:49 | -33.05552 | 151.34453 | 1700 ft | 203 kts | 162° |
| 2026-04-29 03:49 | -33.06847 | 151.34986 | 1713 ft | 189 kts | 161° |
| 2026-04-29 03:49 | -33.08111 | 151.35494 | 1894 ft | 199 kts | 162° |
| 2026-04-29 03:49 | -33.09484 | 151.35987 | 1372 ft | 209 kts | 168° |
| 2026-04-29 03:50 | -33.10886 | 151.36112 | 1208 ft | 197 kts | 177° |
| 2026-04-29 03:50 | -33.12278 | 151.36305 | 1036 ft | 207 kts | 172° |
| 2026-04-29 03:50 | -33.13689 | 151.36682 | 579 ft | 204 kts | 166° |
| 2026-04-29 03:50 | -33.15020 | 151.37073 | 701 ft | 193 kts | 167° |
| 2026-04-29 03:51 | -33.16329 | 151.37538 | 805 ft | 202 kts | 163° |
| 2026-04-29 03:51 | -33.17639 | 151.38179 | 557 ft | 203 kts | 156° |
| 2026-04-29 03:51 | -33.18862 | 151.38957 | 574 ft | 192 kts | 151° |
| 2026-04-29 03:51 | -33.19998 | 151.39756 | 967 ft | 193 kts | 150° |
| 2026-04-29 03:52 | -33.21167 | 151.40600 | 954 ft | 200 kts | 148° |
| 2026-04-29 03:52 | -33.22299 | 151.41523 | 1032 ft | 193 kts | 146° |
| 2026-04-29 03:52 | -33.23336 | 151.42577 | 1156 ft | 201 kts | 138° |
| 2026-04-29 03:52 | -33.24306 | 151.43818 | 914 ft | 203 kts | 131° |
| 2026-04-29 03:53 | -33.25198 | 151.45100 | 895 ft | 201 kts | 128° |
| 2026-04-29 03:53 | -33.26050 | 151.46443 | 808 ft | 202 kts | 129° |
| 2026-04-29 03:53 | -33.27120 | 151.47473 | 792 ft | 192 kts | 149° |
| 2026-04-29 03:53 | -33.28330 | 151.48028 | 1191 ft | 187 kts | 165° |
| 2026-04-29 03:54 | -33.29597 | 151.48376 | 1115 ft | 184 kts | 167° |
| 2026-04-29 03:54 | -33.30804 | 151.48742 | 948 ft | 174 kts | 165° |
| 2026-04-29 03:54 | -33.31987 | 151.48909 | 618 ft | 167 kts | 178° |
| 2026-04-29 03:54 | -33.33012 | 151.49281 | 897 ft | 160 kts | 140° |
| 2026-04-29 03:55 | -33.33854 | 151.50138 | 1036 ft | 166 kts | 171° |
| 2026-04-29 03:55 | -33.35009 | 151.50002 | 1671 ft | 174 kts | 188° |
| 2026-04-29 03:55 | -33.36137 | 151.50581 | 1861 ft | 185 kts | 143° |
| 2026-04-29 03:55 | -33.37242 | 151.51302 | 2185 ft | 179 kts | 166° |
| 2026-04-29 03:56 | -33.38422 | 151.51021 | 2281 ft | 170 kts | 208° |
| 2026-04-29 03:56 | -33.39271 | 151.50177 | 2378 ft | 145 kts | 222° |
| 2026-04-29 03:56 | -33.39969 | 151.49445 | 2527 ft | 128 kts | 221° |
| 2026-04-29 03:56 | -33.40632 | 151.48800 | 2769 ft | 119 kts | 213° |
| 2026-04-29 03:57 | -33.41319 | 151.48155 | 2819 ft | 137 kts | 219° |
| 2026-04-29 03:57 | -33.42150 | 151.47494 | 2389 ft | 149 kts | 208° |
| 2026-04-29 03:57 | -33.43100 | 151.46979 | 1962 ft | 144 kts | 202° |
| 2026-04-29 03:57 | -33.43922 | 151.46489 | 1826 ft | 120 kts | 210° |
| 2026-04-29 03:58 | -33.44584 | 151.45966 | 1777 ft | 108 kts | 216° |
| 2026-04-29 03:58 | -33.45127 | 151.45429 | 1709 ft | 92 kts | 219° |
| 2026-04-29 03:58 | -33.45616 | 151.44965 | 1649 ft | 88 kts | 215° |
| 2026-04-29 03:58 | -33.46092 | 151.44567 | 1641 ft | 81 kts | 213° |
| 2026-04-29 03:59 | -33.46581 | 151.44213 | 1563 ft | 86 kts | 208° |
| 2026-04-29 03:59 | -33.47158 | 151.43949 | 1388 ft | 96 kts | 187° |
| 2026-04-29 03:59 | -33.47882 | 151.44075 | 1175 ft | 112 kts | 168° |
| 2026-04-29 03:59 | -33.48622 | 151.44318 | 1208 ft | 110 kts | 162° |
| 2026-04-29 04:00 | -33.49295 | 151.44756 | 1155 ft | 112 kts | 131° |
| 2026-04-29 04:00 | -33.49122 | 151.45432 | 1006 ft | 92 kts | 0° |
| 2026-04-29 04:00 | -33.49051 | 151.44830 | 735 ft | 98 kts | 226° |
| 2026-04-29 04:00 | -33.49619 | 151.44313 | 952 ft | 104 kts | 214° |
| 2026-04-29 04:01 | -33.50238 | 151.43802 | 1170 ft | 118 kts | 214° |
| 2026-04-29 04:01 | -33.50957 | 151.43206 | 1283 ft | 131 kts | 215° |
| 2026-04-29 04:01 | -33.51703 | 151.42502 | 1215 ft | 139 kts | 219° |
| 2026-04-29 04:01 | -33.52445 | 151.41690 | 1161 ft | 152 kts | 222° |
| 2026-04-29 04:02 | -33.53268 | 151.40855 | 1188 ft | 157 kts | 220° |
| 2026-04-29 04:02 | -33.54113 | 151.39990 | 1157 ft | 160 kts | 220° |
| 2026-04-29 04:02 | -33.54936 | 151.39105 | 1144 ft | 160 kts | 222° |
| 2026-04-29 04:02 | -33.55785 | 151.38215 | 1101 ft | 161 kts | 221° |
| 2026-04-29 04:03 | -33.56559 | 151.37424 | 1081 ft | 137 kts | 215° |
| 2026-04-29 04:03 | -33.57351 | 151.36904 | 1049 ft | 125 kts | 205° |
| 2026-04-29 04:03 | -33.58111 | 151.36490 | 1122 ft | 122 kts | 203° |
| 2026-04-29 04:03 | -33.58922 | 151.36052 | 1135 ft | 132 kts | 204° |
| 2026-04-29 04:04 | -33.59790 | 151.35613 | 1098 ft | 141 kts | 202° |
| 2026-04-29 04:04 | -33.60701 | 151.35167 | 1020 ft | 141 kts | 202° |
| 2026-04-29 04:04 | -33.61602 | 151.34707 | 933 ft | 140 kts | 203° |
| 2026-04-29 04:04 | -33.62455 | 151.34270 | 1099 ft | 130 kts | 201° |
| 2026-04-29 04:05 | -33.63282 | 151.33910 | 1006 ft | 123 kts | 200° |
| 2026-04-29 04:05 | -33.64074 | 151.33564 | 955 ft | 120 kts | 200° |
| 2026-04-29 04:05 | -33.64843 | 151.33254 | 881 ft | 117 kts | 197° |
| 2026-04-29 04:05 | -33.65628 | 151.32997 | 852 ft | 117 kts | 193° |
| 2026-04-29 04:06 | -33.66425 | 151.32794 | 871 ft | 116 kts | 191° |
| 2026-04-29 04:06 | -33.67223 | 151.32593 | 920 ft | 117 kts | 192° |
| 2026-04-29 04:06 | -33.68148 | 151.32360 | 982 ft | 153 kts | 189° |
| 2026-04-29 04:06 | -33.69230 | 151.32181 | 1056 ft | 160 kts | 188° |
| 2026-04-29 04:07 | -33.70330 | 151.32021 | 1052 ft | 157 kts | 186° |
| 2026-04-29 04:07 | -33.71356 | 151.31855 | 1015 ft | 142 kts | 189° |
| 2026-04-29 04:07 | -33.72308 | 151.31661 | 937 ft | 131 kts | 189° |
| 2026-04-29 04:07 | -33.73176 | 151.31486 | 977 ft | 122 kts | 189° |
| 2026-04-29 04:08 | -33.74042 | 151.31319 | 983 ft | 132 kts | 188° |
| 2026-04-29 04:08 | -33.74977 | 151.31178 | 978 ft | 133 kts | 187° |
| 2026-04-29 04:08 | -33.75885 | 151.30956 | 873 ft | 134 kts | 195° |
| 2026-04-29 04:08 | -33.76755 | 151.30646 | 751 ft | 128 kts | 195° |
| 2026-04-29 04:09 | -33.77607 | 151.30497 | 668 ft | 115 kts | 182° |
| 2026-04-29 04:09 | -33.78338 | 151.30549 | 681 ft | 103 kts | 172° |
| 2026-04-29 04:09 | -33.79060 | 151.30727 | 747 ft | 107 kts | 168° |
| 2026-04-29 04:09 | -33.79827 | 151.30872 | 818 ft | 115 kts | 172° |
| 2026-04-29 04:10 | -33.80562 | 151.30986 | 813 ft | 96 kts | 174° |
| 2026-04-29 04:10 | -33.81244 | 151.30976 | 784 ft | 103 kts | 187° |
| 2026-04-29 04:10 | -33.81961 | 151.30649 | 404 ft | 114 kts | 204° |
| 2026-04-29 04:10 | -33.82655 | 151.30268 | 452 ft | 109 kts | 204° |
| 2026-04-29 04:11 | -33.83369 | 151.29950 | 458 ft | 110 kts | 197° |
| 2026-04-29 04:11 | -33.84076 | 151.29739 | 438 ft | 96 kts | 192° |
| 2026-04-29 04:11 | -33.84702 | 151.29532 | 404 ft | 95 kts | 196° |
| 2026-04-29 04:11 | -33.85348 | 151.29338 | 395 ft | 97 kts | 189° |
| 2026-04-29 04:12 | -33.86031 | 151.29237 | 382 ft | 102 kts | 187° |
| 2026-04-29 04:12 | -33.86784 | 151.29119 | 389 ft | 116 kts | 187° |
| 2026-04-29 04:12 | -33.87610 | 151.29009 | 359 ft | 124 kts | 185° |
| 2026-04-29 04:12 | -33.88470 | 151.28947 | 333 ft | 123 kts | 185° |
| 2026-04-29 04:13 | -33.89339 | 151.28761 | 364 ft | 135 kts | 193° |
| 2026-04-29 04:13 | -33.90278 | 151.28478 | 409 ft | 141 kts | 194° |
| 2026-04-29 04:13 | -33.91218 | 151.28164 | 412 ft | 140 kts | 195° |
| 2026-04-29 04:13 | -33.92141 | 151.27875 | 370 ft | 133 kts | 192° |
| 2026-04-29 04:14 | -33.92996 | 151.27649 | 402 ft | 120 kts | 191° |
| 2026-04-29 04:14 | -33.93812 | 151.27506 | 406 ft | 120 kts | 187° |
| 2026-04-29 04:14 | -33.94691 | 151.27370 | 411 ft | 134 kts | 187° |
| 2026-04-29 04:14 | -33.95633 | 151.27199 | 391 ft | 138 kts | 190° |
| 2026-04-29 04:15 | -33.96576 | 151.26969 | 373 ft | 138 kts | 192° |
| 2026-04-29 04:15 | -33.97492 | 151.26709 | 373 ft | 137 kts | 194° |
| 2026-04-29 04:15 | -33.98395 | 151.26352 | 381 ft | 137 kts | 202° |
| 2026-04-29 04:15 | -33.99250 | 151.25834 | 378 ft | 137 kts | 208° |
| 2026-04-29 04:16 | -34.00078 | 151.25292 | 377 ft | 137 kts | 206° |
| 2026-04-29 04:16 | -34.00949 | 151.24797 | 352 ft | 138 kts | 205° |
| 2026-04-29 04:16 | -34.01822 | 151.24304 | 304 ft | 137 kts | 204° |
| 2026-04-29 04:16 | -34.02654 | 151.23783 | 350 ft | 135 kts | 209° |
| 2026-04-29 04:17 | -34.03501 | 151.23106 | 401 ft | 150 kts | 214° |
| 2026-04-29 04:17 | -34.04334 | 151.22372 | 376 ft | 144 kts | 218° |
| 2026-04-29 04:17 | -34.05108 | 151.21659 | 418 ft | 140 kts | 215° |
| 2026-04-29 04:17 | -34.05874 | 151.20924 | 426 ft | 141 kts | 221° |
| 2026-04-29 04:18 | -34.06606 | 151.20156 | 433 ft | 140 kts | 220° |
| 2026-04-29 04:18 | -34.07342 | 151.19393 | 426 ft | 137 kts | 220° |
| 2026-04-29 04:18 | -34.08044 | 151.18668 | 422 ft | 129 kts | 220° |
| 2026-04-29 04:18 | -34.08719 | 151.17954 | 417 ft | 131 kts | 220° |
| 2026-04-29 04:19 | -34.09397 | 151.17242 | 477 ft | 123 kts | 220° |
| 2026-04-29 04:19 | -34.09894 | 151.16576 | 617 ft | 96 kts | 236° |
| 2026-04-29 04:19 | -34.10226 | 151.15890 | 571 ft | 93 kts | 241° |
| 2026-04-29 04:19 | -34.10496 | 151.15160 | 515 ft | 99 kts | 243° |
| 2026-04-29 04:20 | -34.10840 | 151.14433 | 489 ft | 103 kts | 242° |
| 2026-04-29 04:20 | -34.11062 | 151.13592 | 574 ft | 108 kts | 251° |
| 2026-04-29 04:20 | -34.11355 | 151.12767 | 509 ft | 94 kts | 253° |
| 2026-04-29 04:20 | -34.11496 | 151.11901 | 723 ft | 106 kts | 254° |
| 2026-04-29 04:21 | -34.11731 | 151.11064 | 816 ft | 109 kts | 249° |
| 2026-04-29 04:21 | -34.11896 | 151.10145 | 822 ft | 103 kts | 258° |
| 2026-04-29 04:21 | -34.11976 | 151.09318 | 796 ft | 101 kts | 266° |
| 2026-04-29 04:21 | -34.11940 | 151.08388 | 710 ft | 117 kts | 271° |
| 2026-04-29 04:22 | -34.12059 | 151.07439 | 673 ft | 113 kts | 249° |
| 2026-04-29 04:22 | -34.12471 | 151.06658 | 728 ft | 107 kts | 231° |
| 2026-04-29 04:22 | -34.12953 | 151.05944 | 735 ft | 111 kts | 227° |
| 2026-04-29 04:22 | -34.13470 | 151.05206 | 679 ft | 119 kts | 226° |
| 2026-04-29 04:23 | -34.13846 | 151.04334 | 506 ft | 116 kts | 269° |
| 2026-04-29 04:23 | -34.13812 | 151.03469 | 590 ft | 111 kts | 259° |
| 2026-04-29 04:23 | -34.13955 | 151.02507 | 454 ft | 111 kts | 263° |
| 2026-04-29 04:23 | -34.14020 | 151.01485 | 766 ft | 128 kts | 265° |
| 2026-04-29 04:24 | -34.14238 | 151.00556 | 875 ft | 111 kts | 234° |
| 2026-04-29 04:24 | -34.14221 | 150.99546 | 927 ft | 137 kts | 291° |
| 2026-04-29 04:24 | -34.13689 | 150.98774 | 1027 ft | 101 kts | 315° |
| 2026-04-29 04:24 | -34.13039 | 150.98264 | 784 ft | 119 kts | 321° |
| 2026-04-29 04:25 | -34.12527 | 150.97451 | 721 ft | 129 kts | 303° |
| 2026-04-29 04:25 | -34.11910 | 150.96648 | 922 ft | 134 kts | 316° |
| 2026-04-29 04:25 | -34.11090 | 150.95979 | 903 ft | 149 kts | 327° |
| 2026-04-29 04:25 | -34.10213 | 150.95323 | 829 ft | 146 kts | 326° |
| 2026-04-29 04:26 | -34.09329 | 150.94789 | 978 ft | 145 kts | 334° |
| 2026-04-29 04:26 | -34.08370 | 150.94294 | 850 ft | 155 kts | 338° |
| 2026-04-29 04:26 | -34.07363 | 150.93763 | 731 ft | 161 kts | 337° |
| 2026-04-29 04:26 | -34.06298 | 150.93546 | 637 ft | 149 kts | 352° |
| 2026-04-29 04:27 | -34.05262 | 150.93540 | 584 ft | 150 kts | 6° |
| 2026-04-29 04:27 | -34.04279 | 150.93824 | 590 ft | 145 kts | 17° |
| 2026-04-29 04:27 | -34.03275 | 150.94069 | 492 ft | 150 kts | 4° |
| 2026-04-29 04:27 | -34.02425 | 150.94596 | 548 ft | 138 kts | 28° |
| 2026-04-29 04:28 | -34.01506 | 150.94941 | 559 ft | 128 kts | 14° |
| 2026-04-29 04:28 | -34.00990 | 150.94958 | 632 ft | 103 kts | 348° |
| 2026-04-29 04:28 | -34.00421 | 150.94737 | 721 ft | 73 kts | 335° |
| 2026-04-29 04:28 | -34.00038 | 150.94275 | 680 ft | 50 kts | 300° |
| 2026-04-29 04:29 | -33.99887 | 150.94080 | 692 ft | 49 kts | 303° |
| 2026-04-29 04:29 | -33.99590 | 150.93828 | 632 ft | 59 kts | 332° |
| 2026-04-29 04:29 | -33.99273 | 150.94212 | 491 ft | 79 kts | 68° |
| 2026-04-29 04:29 | -33.99351 | 150.94790 | 370 ft | 56 kts | 112° |
| 2026-04-29 04:30 | -33.99512 | 150.95094 | 265 ft | 19 kts | 109° |
| 2026-04-29 04:30 | -33.99540 | 150.95152 | 258 ft | 5 kts | 100° |
| 2026-04-29 04:30 | -33.99498 | 150.95219 | 253 ft | 2 kts | 36° |
| 2026-04-29 04:31 | -33.99494 | 150.95232 | 252 ft | 0 kts | 121° |
| 2026-04-29 04:31 | -33.99498 | 150.95240 | 252 ft | 2 kts | 125° |
| 2026-04-29 04:31 | -33.99501 | 150.95245 | 252 ft | 0 kts | 125° |
| 2026-04-29 04:31 | -33.99498 | 150.95277 | 251 ft | 6 kts | 121° |
| 2026-04-29 04:32 | -33.99512 | 150.95322 | 250 ft | 0 kts | 123° |